Cincinnati, Ohio
Traffic Map
Current Weather Conditions
Cincinnati, Ohio
Few Clouds
Few Clouds
54°
Feels Like: 54°
Wind Chill: 54° Ceiling: Unl
Heat Index: 54° Visibility: 10mi
Dew Point: 30° Wind: 10mph
Humidity: 40% Direction: 360° (N)
Pressure: 30.28in Gusts: 18mph
Raw Report DataKLUK 192153Z 36009G16KT 10SM FEW060 12/M01 A3028 RMK AO2 SLP253 T01221011
Traffic Incident Summary
Active as of:
Severity:
Category:
InformationThere was an issue retrieving the traffic information for this location. Please try a different location or try again shortly.
Advertisements